createdAt,value
2023-04-16T00:01:21.352Z,100575.00
2023-04-16T00:03:51.147Z,100570.81
2023-04-16T00:06:19.237Z,100572.13
2023-04-16T00:08:47.549Z,100569.22
2023-04-16T00:11:16.007Z,100573.97
2023-04-16T00:13:44.393Z,100572.69
2023-04-16T00:16:12.394Z,100572.91
2023-04-16T00:18:40.789Z,100576.59
2023-04-16T00:21:10.334Z,100576.59
2023-04-16T00:23:38.905Z,100578.19
2023-04-16T00:26:07.088Z,100584.78
2023-04-16T00:28:35.423Z,100584.06
2023-04-16T00:31:03.508Z,100578.69
2023-04-16T00:33:31.901Z,100585.59
2023-04-16T00:36:00.486Z,100581.91
2023-04-16T00:38:32.407Z,100583.03
2023-04-16T00:41:00.483Z,100572.03
2023-04-16T00:43:28.731Z,100582.22
2023-04-16T00:45:57.963Z,100585.31
2023-04-16T00:48:27.820Z,100586.81
2023-04-16T00:50:56.411Z,100590.13
2023-04-16T00:53:24.810Z,100583.75
2023-04-16T00:55:54.573Z,100587.59
2023-04-16T00:58:22.879Z,100586.41
2023-04-16T01:00:51.733Z,100597.69
2023-04-16T01:03:20.104Z,100595.75
2023-04-16T01:05:50.627Z,100598.75
2023-04-16T01:08:19.449Z,100597.13
2023-04-16T01:10:47.518Z,100594.34
2023-04-16T01:13:17.137Z,100604.38
2023-04-16T01:15:45.283Z,100597.16
2023-04-16T01:18:17.204Z,100594.97
2023-04-16T01:20:47.038Z,100599.31
2023-04-16T01:23:15.518Z,100600.91
2023-04-16T01:25:43.510Z,100598.72
2023-04-16T01:28:11.847Z,100602.88
2023-04-16T01:30:39.995Z,100609.00
2023-04-16T01:33:17.956Z,100600.13
2023-04-16T01:35:47.394Z,100604.31
2023-04-16T01:38:17.409Z,100615.38
2023-04-16T01:40:45.505Z,100605.72
2023-04-16T01:43:13.804Z,100609.75
2023-04-16T01:45:42.119Z,100622.97
2023-04-16T01:48:10.631Z,100619.75
2023-04-16T01:50:38.707Z,100624.34
2023-04-16T01:53:09.607Z,100618.56
2023-04-16T01:55:37.644Z,100628.03
2023-04-16T01:58:07.801Z,100626.22
2023-04-16T02:00:36.324Z,100630.09
2023-04-16T02:03:04.944Z,100629.06
2023-04-16T02:05:33.169Z,100631.25
2023-04-16T02:08:01.837Z,100635.25
2023-04-16T02:10:32.866Z,100620.84
2023-04-16T02:13:01.396Z,100624.47
2023-04-16T02:15:29.494Z,100625.47
2023-04-16T02:17:57.893Z,100629.34
2023-04-16T02:20:27.105Z,100630.31
2023-04-16T02:22:59.961Z,100625.69
2023-04-16T02:25:28.915Z,100627.28
2023-04-16T02:28:00.271Z,100627.41
2023-04-16T02:30:36.592Z,100628.22
2023-04-16T02:33:07.239Z,100631.25
2023-04-16T02:35:36.437Z,100630.78
2023-04-16T02:38:06.362Z,100626.84
2023-04-16T02:40:36.244Z,100634.44
2023-04-16T02:43:05.862Z,100628.72
2023-04-16T02:45:34.551Z,100632.84
2023-04-16T02:48:02.870Z,100636.44
2023-04-16T02:50:30.988Z,100635.97
2023-04-16T02:52:59.277Z,100638.03
2023-04-16T02:55:28.104Z,100636.91
2023-04-16T02:57:56.434Z,100640.91
2023-04-16T03:00:25.921Z,100638.63
2023-04-16T03:02:54.422Z,100642.75
2023-04-16T03:05:22.648Z,100635.06
2023-04-16T03:07:56.396Z,100631.69
2023-04-16T03:10:24.946Z,100632.50
2023-04-16T03:12:53.230Z,100632.16
2023-04-16T03:15:21.230Z,100629.63
2023-04-16T03:17:51.207Z,100632.84
2023-04-16T03:20:19.747Z,100632.28
2023-04-16T03:22:48.152Z,100643.22
2023-04-16T03:25:16.441Z,100643.22
2023-04-16T03:27:44.840Z,100641.72
2023-04-16T03:30:14.483Z,100644.94
2023-04-16T03:32:43.141Z,100647.56
2023-04-16T03:35:13.645Z,100644.38
2023-04-16T03:37:42.127Z,100649.66
2023-04-16T03:40:11.211Z,100648.50
2023-04-16T03:42:39.661Z,100652.22
2023-04-16T03:45:09.374Z,100652.69
2023-04-16T03:47:38.294Z,100659.56
2023-04-16T03:50:07.039Z,100662.13
2023-04-16T03:52:36.640Z,100661.50
2023-04-16T03:55:05.346Z,100658.22
2023-04-16T03:57:34.110Z,100656.56
2023-04-16T04:00:09.793Z,100656.56
2023-04-16T04:02:55.474Z,100659.09
2023-04-16T04:05:24.117Z,100663.13
2023-04-16T04:07:54.963Z,100664.72
2023-04-16T04:10:23.171Z,100667.63
2023-04-16T04:12:51.552Z,100663.91
2023-04-16T04:15:19.644Z,100677.38
2023-04-16T04:17:49.012Z,100670.16
2023-04-16T04:20:17.268Z,100675.91
2023-04-16T04:22:47.471Z,100670.03
2023-04-16T04:25:17.953Z,100670.84
2023-04-16T04:27:46.212Z,100679.66
2023-04-16T04:30:14.208Z,100671.97
2023-04-16T04:32:43.359Z,100674.94
2023-04-16T04:35:11.523Z,100675.19
2023-04-16T04:37:39.869Z,100674.84
2023-04-16T04:40:19.728Z,100681.41
2023-04-16T04:42:47.984Z,100684.63
2023-04-16T04:45:16.921Z,100690.59
2023-04-16T04:47:45.156Z,100700.59
2023-04-16T04:50:13.215Z,100695.88
2023-04-16T04:52:42.205Z,100698.75
2023-04-16T04:55:10.550Z,100704.88
2023-04-16T04:57:40.220Z,100710.16
2023-04-16T05:00:09.378Z,100711.88
2023-04-16T05:02:47.348Z,100708.34
2023-04-16T05:05:15.657Z,100717.31
2023-04-16T05:07:43.907Z,100722.59
2023-04-16T05:10:11.995Z,100715.84
2023-04-16T05:12:41.570Z,100715.03
2023-04-16T05:15:10.554Z,100717.66
2023-04-16T05:17:38.832Z,100727.88
2023-04-16T05:20:08.648Z,100715.00
2023-04-16T05:22:36.918Z,100719.00
2023-04-16T05:25:05.371Z,100730.78
2023-04-16T05:27:33.615Z,100731.13
2023-04-16T05:30:02.969Z,100731.22
2023-04-16T05:32:31.551Z,100730.16
2023-04-16T05:34:59.589Z,100729.03
2023-04-16T05:37:27.776Z,100721.47
2023-04-16T05:39:55.950Z,100722.59
2023-04-16T05:42:24.247Z,100734.81
2023-04-16T05:44:52.412Z,100734.09
2023-04-16T05:47:22.192Z,100737.09
2023-04-16T05:49:50.193Z,100743.97
2023-04-16T05:52:18.352Z,100745.59
2023-04-16T05:54:46.402Z,100750.97
2023-04-16T05:57:14.877Z,100749.03
2023-04-16T05:59:42.886Z,100755.47
2023-04-16T06:02:11.214Z,100757.19
2023-04-16T06:04:40.646Z,100749.72
2023-04-16T06:07:08.938Z,100756.69
2023-04-16T06:09:37.018Z,100756.81
2023-04-16T06:12:05.562Z,100755.88
2023-04-16T06:14:33.558Z,100763.94
2023-04-16T06:17:01.834Z,100766.78
2023-04-16T06:19:29.794Z,100775.13
2023-04-16T06:21:59.402Z,100769.25
2023-04-16T06:24:27.436Z,100773.94
2023-04-16T06:26:55.642Z,100768.88
2023-04-16T06:29:30.677Z,100778.56
2023-04-16T06:32:08.671Z,100782.94
2023-04-16T06:34:36.795Z,100775.25
2023-04-16T06:37:08.399Z,100779.84
2023-04-16T06:39:37.914Z,100784.66
2023-04-16T06:42:06.264Z,100779.06
2023-04-16T06:44:34.276Z,100787.69
2023-04-16T06:47:02.714Z,100787.25
2023-04-16T06:49:30.870Z,100795.38
2023-04-16T06:51:59.284Z,100793.56
2023-04-16T06:54:28.585Z,100794.72
2023-04-16T06:56:56.923Z,100791.84
2023-04-16T06:59:24.897Z,100791.84
2023-04-16T07:01:53.321Z,100797.81
2023-04-16T07:04:21.651Z,100797.81
2023-04-16T07:06:50.031Z,100798.25
2023-04-16T07:09:18.535Z,100801.50
2023-04-16T07:11:48.212Z,100790.22
2023-04-16T07:14:16.275Z,100798.72
2023-04-16T07:16:44.543Z,100802.44
2023-04-16T07:19:12.555Z,100808.66
2023-04-16T07:21:41.978Z,100807.03
2023-04-16T07:24:11.000Z,100802.06
2023-04-16T07:26:39.313Z,100800.78
2023-04-16T07:29:08.912Z,100806.56
2023-04-16T07:31:37.473Z,100806.09
2023-04-16T07:34:05.649Z,100802.44
2023-04-16T07:36:33.914Z,100797.94
2023-04-16T07:39:01.892Z,100809.06
2023-04-16T07:41:30.418Z,100808.59
2023-04-16T07:43:58.933Z,100820.34
2023-04-16T07:46:39.272Z,100812.28
2023-04-16T07:49:14.018Z,100822.06
2023-04-16T07:51:42.308Z,100819.31
2023-04-16T07:54:11.079Z,100824.47
2023-04-16T07:56:39.509Z,100814.72
2023-04-16T07:59:21.041Z,100827.25
2023-04-16T08:01:54.245Z,100835.53
2023-04-16T08:04:25.082Z,100823.81
2023-04-16T08:06:54.361Z,100822.88
2023-04-16T08:09:23.828Z,100830.34
2023-04-16T08:11:52.118Z,100835.66
2023-04-16T08:14:20.338Z,100837.81
2023-04-16T08:16:48.572Z,100832.53
2023-04-16T08:19:18.255Z,100835.28
2023-04-16T08:21:46.528Z,100847.59
2023-04-16T08:24:14.534Z,100844.66
2023-04-16T08:26:42.824Z,100846.34
2023-04-16T08:29:11.157Z,100847.28
2023-04-16T08:31:39.729Z,100846.25
2023-04-16T08:34:07.806Z,100858.53
2023-04-16T08:36:37.402Z,100856.00
2023-04-16T08:39:05.852Z,100858.88
2023-04-16T08:41:36.205Z,100866.38
2023-04-16T08:44:09.364Z,100868.69
2023-04-16T08:46:38.806Z,100859.69
2023-04-16T08:49:08.058Z,100866.47
2023-04-16T08:51:38.361Z,100873.53
2023-04-16T08:54:09.886Z,100869.03
2023-04-16T08:56:39.473Z,100875.97
2023-04-16T08:59:10.674Z,100874.91
2023-04-16T09:01:41.589Z,100886.31
2023-04-16T09:04:10.285Z,100886.66
2023-04-16T09:06:41.423Z,100880.91
2023-04-16T09:09:09.989Z,100873.31
2023-04-16T09:11:39.741Z,100880.91
2023-04-16T09:14:11.103Z,100881.72
2023-04-16T09:16:40.867Z,100893.09
2023-04-16T09:19:09.220Z,100892.63
2023-04-16T09:21:38.139Z,100895.19
2023-04-16T09:24:08.155Z,100892.44
2023-04-16T09:26:36.726Z,100894.97
2023-04-16T09:29:04.769Z,100894.28
2023-04-16T09:31:33.094Z,100899.09
2023-04-16T09:34:05.335Z,100892.28
2023-04-16T09:36:34.066Z,100903.66
2023-04-16T09:39:02.349Z,100900.91
2023-04-16T09:41:35.836Z,100903.34
2023-04-16T09:44:05.947Z,100901.25
2023-04-16T09:46:36.137Z,100907.84
2023-04-16T09:49:06.512Z,100906.66
2023-04-16T09:51:38.049Z,100911.06
2023-04-16T09:54:06.526Z,100911.06
2023-04-16T09:56:41.366Z,100911.50
2023-04-16T09:59:10.402Z,100917.97
2023-04-16T10:01:38.978Z,100913.13
2023-04-16T10:04:07.777Z,100913.13
2023-04-16T10:06:36.166Z,100906.19
2023-04-16T10:09:08.201Z,100913.00
2023-04-16T10:11:38.318Z,100911.97
2023-04-16T10:14:06.330Z,100913.84
2023-04-16T10:16:35.282Z,100917.63
2023-04-16T10:19:03.315Z,100923.03
2023-04-16T10:21:33.859Z,100924.41
2023-04-16T10:24:02.490Z,100920.25
2023-04-16T10:26:31.024Z,100920.84
2023-04-16T10:29:01.160Z,100920.97
2023-04-16T10:31:29.553Z,100925.78
2023-04-16T10:33:57.739Z,100929.47
2023-04-16T10:36:27.595Z,100928.44
2023-04-16T10:39:00.640Z,100928.56
2023-04-16T10:41:29.171Z,100926.16
2023-04-16T10:44:09.504Z,100936.88
2023-04-16T10:46:39.794Z,100926.53
2023-04-16T10:49:15.063Z,100930.63
2023-04-16T10:51:43.398Z,100939.41
2023-04-16T10:54:22.505Z,100939.41
2023-04-16T10:56:51.338Z,100933.88
2023-04-16T10:59:21.708Z,100934.09
2023-04-16T11:01:52.904Z,100927.06
2023-04-16T11:04:33.491Z,100932.59
2023-04-16T11:07:06.189Z,100926.97
2023-04-16T11:09:57.679Z,100939.97
2023-04-16T11:12:28.951Z,100938.69
2023-04-16T11:15:01.436Z,100940.31
2023-04-16T11:17:32.608Z,100938.69
2023-04-16T11:20:00.897Z,100941.47
2023-04-16T11:22:29.180Z,100936.50
2023-04-16T11:24:57.950Z,100940.53
2023-04-16T11:27:26.568Z,100939.75
2023-04-16T11:30:00.060Z,100928.66
2023-04-16T11:32:28.658Z,100942.81
2023-04-16T11:34:56.595Z,100944.44
2023-04-16T11:37:33.595Z,100930.28
2023-04-16T11:40:02.257Z,100934.84
2023-04-16T11:42:30.771Z,100941.53
2023-04-16T11:45:01.394Z,100927.47
2023-04-16T11:47:31.506Z,100941.28
2023-04-16T11:49:59.907Z,100942.78
2023-04-16T11:52:28.733Z,100942.13
2023-04-16T11:54:56.850Z,100942.13
2023-04-16T11:57:26.610Z,100939.47
2023-04-16T12:00:01.698Z,100936.81
2023-04-16T12:02:43.177Z,100948.44
2023-04-16T12:05:30.695Z,100945.31
2023-04-16T12:07:59.988Z,100933.94
2023-04-16T12:10:28.525Z,100938.41
2023-04-16T12:13:10.923Z,100938.69
2023-04-16T12:15:46.979Z,100936.56
2023-04-16T12:18:16.966Z,100939.66
2023-04-16T12:20:45.583Z,100942.22
2023-04-16T12:23:24.008Z,100926.50
2023-04-16T12:25:54.941Z,100934.84
2023-04-16T12:28:31.145Z,100932.03
2023-04-16T12:30:59.235Z,100931.81
2023-04-16T12:33:29.033Z,100941.16
2023-04-16T12:35:57.016Z,100938.25
2023-04-16T12:38:26.201Z,100940.81
2023-04-16T12:40:56.812Z,100938.72
2023-04-16T12:43:25.987Z,100943.22
2023-04-16T12:45:54.098Z,100942.41
2023-04-16T12:48:22.594Z,100945.63
2023-04-16T12:50:54.710Z,100943.00
2023-04-16T12:53:23.093Z,100946.75
2023-04-16T12:55:51.493Z,100944.59
2023-04-16T12:58:19.730Z,100941.59
2023-04-16T13:00:47.819Z,100946.13
2023-04-16T13:03:16.281Z,100947.38
2023-04-16T13:05:44.573Z,100944.00
2023-04-16T13:08:14.219Z,100944.34
2023-04-16T13:10:42.292Z,100943.09
2023-04-16T13:13:10.624Z,100935.69
2023-04-16T13:15:38.734Z,100937.63
2023-04-16T13:18:07.050Z,100940.03
2023-04-16T13:20:35.182Z,100941.16
2023-04-16T13:23:04.861Z,100945.19
2023-04-16T13:25:34.330Z,100946.03
2023-04-16T13:28:02.642Z,100941.16
2023-04-16T13:30:31.798Z,100940.03
2023-04-16T13:33:00.537Z,100954.44
2023-04-16T13:35:28.686Z,100954.66
2023-04-16T13:37:56.948Z,100954.81
2023-04-16T13:40:24.989Z,100950.19
2023-04-16T13:42:54.583Z,100956.53
2023-04-16T13:45:22.666Z,100956.53
2023-04-16T13:47:50.974Z,100954.66
2023-04-16T13:50:19.330Z,100954.34
2023-04-16T13:52:47.818Z,100949.03
2023-04-16T13:55:18.904Z,100956.44
2023-04-16T13:57:48.042Z,100950.81
2023-04-16T14:00:18.636Z,100958.53
2023-04-16T14:02:48.663Z,100956.09
2023-04-16T14:05:17.053Z,100955.28
2023-04-16T14:07:45.382Z,100955.28
2023-04-16T14:10:13.447Z,100959.09
2023-04-16T14:12:41.978Z,100955.88
2023-04-16T14:15:10.612Z,100946.63
2023-04-16T14:17:40.270Z,100954.72
2023-04-16T14:20:09.259Z,100960.03
2023-04-16T14:22:37.561Z,100958.03
2023-04-16T14:25:06.346Z,100962.69
2023-04-16T14:27:35.102Z,100958.31
2023-04-16T14:30:03.294Z,100964.94
2023-04-16T14:32:31.639Z,100974.91
2023-04-16T14:35:02.698Z,100971.13
2023-04-16T14:37:31.803Z,100965.09
2023-04-16T14:39:59.884Z,100964.94
2023-04-16T14:42:28.397Z,100966.72
2023-04-16T14:44:56.593Z,100956.91
2023-04-16T14:47:25.182Z,100955.88
2023-04-16T14:49:53.291Z,100945.06
2023-04-16T14:52:23.386Z,100959.00
2023-04-16T14:54:52.207Z,100963.81
2023-04-16T14:57:20.587Z,100959.00
2023-04-16T14:59:49.255Z,100962.69
2023-04-16T15:02:17.769Z,100970.72
2023-04-16T15:04:46.452Z,100971.06
2023-04-16T15:07:14.870Z,100974.06
2023-04-16T15:09:44.276Z,100965.28
2023-04-16T15:12:12.683Z,100966.09
2023-04-16T15:14:40.980Z,100967.69
2023-04-16T15:17:09.466Z,100967.44
2023-04-16T15:19:37.745Z,100968.50
2023-04-16T15:22:06.694Z,100967.69
2023-04-16T15:24:34.737Z,100969.56
2023-04-16T15:27:07.162Z,100972.06
2023-04-16T15:29:35.804Z,100973.19
2023-04-16T15:32:04.154Z,100973.19
2023-04-16T15:34:32.321Z,100966.84
2023-04-16T15:37:00.862Z,100963.72
2023-04-16T15:39:28.961Z,100970.63
2023-04-16T15:42:00.843Z,100965.66
2023-04-16T15:44:32.355Z,100969.19
2023-04-16T15:47:00.820Z,100971.19
2023-04-16T15:49:28.936Z,100965.00
2023-04-16T15:51:57.233Z,100980.75
2023-04-16T15:54:25.581Z,100977.09
2023-04-16T15:56:53.869Z,100973.69
2023-04-16T15:59:21.909Z,100975.78
2023-04-16T16:01:51.607Z,100969.06
2023-04-16T16:04:22.129Z,100974.69
2023-04-16T16:06:50.676Z,100981.91
2023-04-16T16:09:25.465Z,100973.69
2023-04-16T16:11:54.343Z,100973.38
2023-04-16T16:14:23.132Z,100979.06
2023-04-16T16:16:52.787Z,100976.56
2023-04-16T16:19:20.836Z,100985.59
2023-04-16T16:21:49.154Z,100989.28
2023-04-16T16:24:17.242Z,100979.66
2023-04-16T16:26:45.506Z,100988.53
2023-04-16T16:29:13.659Z,100984.38
2023-04-16T16:31:42.046Z,100983.69
2023-04-16T16:34:19.969Z,100982.66
2023-04-16T16:36:49.116Z,100982.09
2023-04-16T16:39:17.125Z,100972.25
2023-04-16T16:41:45.612Z,100984.75
2023-04-16T16:44:13.768Z,100988.47
2023-04-16T16:46:42.088Z,100985.31
2023-04-16T16:49:11.714Z,100987.78
2023-04-16T16:51:40.414Z,100985.88
2023-04-16T16:54:08.868Z,100993.41
2023-04-16T16:56:37.208Z,100992.47
2023-04-16T16:59:05.361Z,100991.44
2023-04-16T17:01:33.799Z,100986.94
2023-04-16T17:04:02.038Z,100987.22
2023-04-16T17:06:33.203Z,100993.94
2023-04-16T17:09:01.284Z,100993.00
2023-04-16T17:11:29.499Z,100981.91
2023-04-16T17:13:57.586Z,100986.72
2023-04-16T17:16:26.052Z,100992.66
2023-04-16T17:18:54.078Z,100993.00
2023-04-16T17:21:22.354Z,100990.44
2023-04-16T17:23:51.760Z,100985.72
2023-04-16T17:26:20.090Z,100997.66
2023-04-16T17:28:48.142Z,101000.34
2023-04-16T17:31:16.506Z,100999.03
2023-04-16T17:33:44.955Z,101006.06
2023-04-16T17:36:13.693Z,101005.06
2023-04-16T17:38:44.706Z,101005.78
2023-04-16T17:41:14.673Z,101013.19
2023-04-16T17:43:42.706Z,101019.06
2023-04-16T17:46:11.590Z,101022.38
2023-04-16T17:48:40.984Z,101023.22
2023-04-16T17:51:12.821Z,101026.75
2023-04-16T17:53:42.566Z,101024.47
2023-04-16T17:56:11.181Z,101033.00
2023-04-16T17:58:40.815Z,101028.16
2023-04-16T18:01:09.229Z,101031.59
2023-04-16T18:03:38.201Z,101032.75
2023-04-16T18:06:06.978Z,101040.72
2023-04-16T18:08:36.856Z,101030.25
2023-04-16T18:11:07.585Z,101040.66
2023-04-16T18:13:35.728Z,101043.13
2023-04-16T18:16:06.203Z,101045.13
2023-04-16T18:18:34.284Z,101046.44
2023-04-16T18:21:02.548Z,101043.63
2023-04-16T18:23:30.687Z,101044.25
2023-04-16T18:25:58.935Z,101045.13
2023-04-16T18:28:27.738Z,101047.56
2023-04-16T18:30:59.043Z,101052.16
2023-04-16T18:33:52.288Z,101046.38
2023-04-16T18:36:17.282Z,101050.53
2023-04-16T18:38:59.523Z,101051.47
2023-04-16T18:41:29.923Z,101059.69
2023-04-16T18:43:58.526Z,101058.53
2023-04-16T18:46:27.382Z,101054.75
2023-04-16T18:48:58.876Z,101055.88
2023-04-16T18:51:27.637Z,101064.78
2023-04-16T18:53:55.666Z,101063.38
2023-04-16T18:56:24.382Z,101066.72
2023-04-16T18:58:52.511Z,101071.53
2023-04-16T19:01:20.869Z,101072.28
2023-04-16T19:03:48.944Z,101069.38
2023-04-16T19:06:18.589Z,101071.59
2023-04-16T19:08:46.657Z,101076.69
2023-04-16T19:11:14.964Z,101082.25
2023-04-16T19:13:43.146Z,101078.78
2023-04-16T19:16:12.289Z,101073.47
2023-04-16T19:18:40.522Z,101083.16
2023-04-16T19:21:10.632Z,101081.91
2023-04-16T19:23:40.132Z,101080.63
2023-04-16T19:26:08.502Z,101087.72
2023-04-16T19:28:38.464Z,101085.44
2023-04-16T19:31:07.234Z,101083.81
2023-04-16T19:33:35.415Z,101086.81
2023-04-16T19:36:04.027Z,101085.66
2023-04-16T19:38:32.401Z,101089.34
2023-04-16T19:41:02.107Z,101091.41
2023-04-16T19:43:30.968Z,101085.66
2023-04-16T19:45:59.655Z,101079.66
2023-04-16T19:48:30.180Z,101088.66
2023-04-16T19:51:02.644Z,101083.47
2023-04-16T19:53:34.367Z,101087.06
2023-04-16T19:56:04.474Z,101085.91
2023-04-16T19:58:32.582Z,101094.91
2023-04-16T20:01:01.109Z,101095.00
2023-04-16T20:03:29.390Z,101089.13
2023-04-16T20:05:57.842Z,101088.91
2023-04-16T20:08:26.021Z,101094.22
2023-04-16T20:10:54.437Z,101088.66
2023-04-16T20:13:25.507Z,101096.28
2023-04-16T20:15:54.048Z,101091.44
2023-04-16T20:18:22.205Z,101096.50
2023-04-16T20:20:50.752Z,101099.38
2023-04-16T20:23:18.906Z,101095.69
2023-04-16T20:25:47.319Z,101101.47
2023-04-16T20:28:16.199Z,101090.84
2023-04-16T20:30:45.975Z,101094.69
2023-04-16T20:33:14.229Z,101102.88
2023-04-16T20:35:42.586Z,101097.44
2023-04-16T20:38:10.598Z,101092.84
2023-04-16T20:40:41.885Z,101092.38
2023-04-16T20:43:14.038Z,101093.16
2023-04-16T20:45:46.010Z,101089.72
2023-04-16T20:48:15.493Z,101086.25
2023-04-16T20:50:43.820Z,101097.69
2023-04-16T20:53:12.916Z,101089.63
2023-04-16T20:55:41.186Z,101085.44
2023-04-16T20:58:09.334Z,101093.63
2023-04-16T21:00:37.694Z,101087.53
2023-04-16T21:03:06.709Z,101083.16
2023-04-16T21:05:36.882Z,101086.38
2023-04-16T21:08:05.312Z,101080.50
2023-04-16T21:10:33.742Z,101088.44
2023-04-16T21:13:01.834Z,101081.31
2023-04-16T21:15:30.450Z,101087.44
2023-04-16T21:17:58.943Z,101089.63
2023-04-16T21:20:30.353Z,101083.84
2023-04-16T21:23:00.298Z,101078.88
2023-04-16T21:25:28.652Z,101078.75
2023-04-16T21:27:56.766Z,101080.28
2023-04-16T21:30:25.058Z,101078.97
2023-04-16T21:32:53.155Z,101088.78
2023-04-16T21:35:21.577Z,101088.22
2023-04-16T21:37:49.767Z,101082.22
2023-04-16T21:40:20.392Z,101093.41
2023-04-16T21:42:48.446Z,101087.88
2023-04-16T21:45:16.711Z,101082.09
2023-04-16T21:47:44.900Z,101087.41
2023-04-16T21:50:14.013Z,101085.00
2023-04-16T21:52:46.049Z,101084.16
2023-04-16T21:55:16.017Z,101081.28
2023-04-16T21:57:45.419Z,101082.91
2023-04-16T22:00:14.531Z,101079.94
2023-04-16T22:02:43.280Z,101084.44
2023-04-16T22:05:12.072Z,101086.13
2023-04-16T22:07:40.798Z,101095.72
2023-04-16T22:10:11.030Z,101099.06
2023-04-16T22:12:40.149Z,101083.97
2023-04-16T22:15:10.594Z,101092.59
2023-04-16T22:17:39.546Z,101086.84
2023-04-16T22:20:11.506Z,101089.84
2023-04-16T22:22:39.934Z,101094.44
2023-04-16T22:25:09.299Z,101090.06
2023-04-16T22:27:37.530Z,101087.31
2023-04-16T22:30:07.140Z,101089.72
2023-04-16T22:32:38.485Z,101087.44
2023-04-16T22:35:07.369Z,101083.63
2023-04-16T22:37:35.428Z,101092.63
2023-04-16T22:40:06.989Z,101102.50
2023-04-16T22:42:35.085Z,101092.00
2023-04-16T22:45:04.762Z,101092.94
2023-04-16T22:47:32.978Z,101085.13
2023-04-16T22:50:03.293Z,101094.44
2023-04-16T22:52:31.546Z,101093.72
2023-04-16T22:54:59.863Z,101095.59
2023-04-16T22:57:27.932Z,101092.63
2023-04-16T22:59:56.271Z,101090.06
2023-04-16T23:02:24.565Z,101088.44
2023-04-16T23:04:53.197Z,101094.56
2023-04-16T23:07:22.662Z,101088.53
2023-04-16T23:09:51.212Z,101089.81
2023-04-16T23:12:19.410Z,101090.53
2023-04-16T23:14:48.302Z,101093.06
2023-04-16T23:17:18.661Z,101087.06
2023-04-16T23:19:47.042Z,101086.38
2023-04-16T23:22:15.034Z,101084.44
2023-04-16T23:24:44.645Z,101085.00
2023-04-16T23:27:12.727Z,101092.25
2023-04-16T23:29:41.034Z,101087.97
2023-04-16T23:32:09.059Z,101091.34
2023-04-16T23:34:37.322Z,101080.16
2023-04-16T23:37:05.429Z,101096.97
2023-04-16T23:39:33.741Z,101092.25
2023-04-16T23:42:03.155Z,101092.16
2023-04-16T23:44:31.539Z,101080.84
2023-04-16T23:46:59.833Z,101086.84
2023-04-16T23:49:28.136Z,101086.59
2023-04-16T23:51:56.320Z,101081.53
2023-04-16T23:54:24.639Z,101076.47
2023-04-16T23:56:52.640Z,101074.75
2023-04-16T23:59:22.776Z,101077.41
